Terminal Aerodrome Forecast
Issued by NWS

Home | Current Version | Previous Version | Text Only | Print | Product List | Glossary On
Versions: 1 2 3 4 5 6 7 8 9 10 11 12 13 14 15 16 17 18 19 20 21 22 23 24 25 26 27 28
000
FTUS41 KOKX 051147
TAFGON
TAF
KGON 051147Z 0512/0612 24005KT P6SM FEW150 BKN250
     FM051500 27007KT P6SM BKN100
     FM051800 21008KT P6SM BKN050
     FM052300 VRB03KT P6SM SCT050 BKN150=

USA.gov is the U.S. government's official web portal to all federal, state and local government web resources and services.